Time;durP1;ratioP1;P1;durP2;ratioP2;P2;SDS_P1;SDS_P2;PMS_P1;PMS_P2;Temp;Humidity;BMP_temperature;BMP_pressure;BME280_temperature;BME280_humidity;BME280_pressure;Samples;Min_cycle;Max_cycle;Signal;HPM_P1;HPM_P2
2022/11/28 00:01:51;;;;;;;;;;;;;;;;;;6140048;23;19932;-72
2022/11/28 00:04:16;;;;;;;;;;;;;;;;;;6139338;23;19928;-72
2022/11/28 00:06:44;;;;;;;;;;;;;;;;;;6137632;23;20244;-72
2022/11/28 00:09:10;;;;;;;;;;;;;;;;;;6141373;23;19923;-71
2022/11/28 00:11:36;;;;;;;;;;;;;;;;;;6141196;23;19916;-71
2022/11/28 00:14:02;;;;;;;;;;;;;;;;;;6138999;23;19944;-72
2022/11/28 00:16:28;;;;;;;;;;;;;;;;;;6139499;23;19916;-73
2022/11/28 00:18:54;;;;;;;;;;;;;;;;;;6138922;23;20122;-72
2022/11/28 00:21:19;;;;;;;;;;;;;;;;;;6140209;23;19920;-72
2022/11/28 00:23:45;;;;;;;;;;;;;;;;;;6139568;23;19958;-72
2022/11/28 00:26:11;;;;;;;;;;;;;;;;;;6141129;23;19936;-71
2022/11/28 00:28:37;;;;;;;;;;;;;;;;;;6138626;23;19983;-72
2022/11/28 00:31:03;;;;;;;;;;;;;;;;;;6139983;23;19951;-72
2022/11/28 00:33:29;;;;;;;;;;;;;;;;;;6141575;23;20710;-71
2022/11/28 00:35:55;;;;;;;;;;;;;;;;;;6141200;23;19913;-71
2022/11/28 00:38:21;;;;;;;;;;;;;;;;;;6137149;23;19928;-72
2022/11/28 00:40:47;;;;;;;;;;;;;;;;;;6139299;23;20303;-72
2022/11/28 00:43:13;;;;;;;;;;;;;;;;;;6141528;23;19921;-73
2022/11/28 00:45:39;;;;;;;;;;;;;;;;;;6140065;23;19916;-73
2022/11/28 00:48:05;;;;;;;;;;;;;;;;;;6138589;23;20136;-72
2022/11/28 00:50:31;;;;;;;;;;;;;;;;;;6139183;23;20391;-72
2022/11/28 00:52:56;;;;;;;;;;;;;;;;;;6139151;23;19974;-72
2022/11/28 00:55:22;;;;;;;;;;;;;;;;;;6139911;23;19951;-71
2022/11/28 00:57:48;;;;;;;;;;;;;;;;;;6139404;23;20449;-72
2022/11/28 01:00:14;;;;;;;;;;;;;;;;;;6138578;23;19927;-72
2022/11/28 01:02:40;;;;;;;;;;;;;;;;;;6138811;23;19927;-72
2022/11/28 01:05:06;;;;;;;;;;;;;;;;;;6139073;23;19916;-71
2022/11/28 01:07:32;;;;;;;;;;;;;;;;;;6139987;23;20331;-72
2022/11/28 01:09:58;;;;;;;;;;;;;;;;;;6139250;23;20060;-72
2022/11/28 01:12:24;;;;;;;;;;;;;;;;;;6138960;23;20462;-72
2022/11/28 01:14:50;;;;;;;;;;;;;;;;;;6139518;23;19964;-73
2022/11/28 01:17:16;;;;;;;;;;;;;;;;;;6139408;23;20018;-72
2022/11/28 01:19:42;;;;;;;;;;;;;;;;;;6134544;23;19920;-72
2022/11/28 01:22:08;;;;;;;;;;;;;;;;;;6139292;23;19920;-72
2022/11/28 01:24:34;;;;;;;;;;;;;;;;;;6139281;23;19920;-72
2022/11/28 01:27:00;;;;;;;;;;;;;;;;;;6141300;23;19917;-72
2022/11/28 01:29:25;;;;;;;;;;;;;;;;;;6139195;23;20482;-73
2022/11/28 01:31:51;;;;;;;;;;;;;;;;;;6140754;23;19967;-72
2022/11/28 01:34:18;;;;;;;;;;;;;;;;;;6142815;23;20355;-73
2022/11/28 01:36:43;;;;;;;;;;;;;;;;;;6141206;23;20407;-72
2022/11/28 01:39:11;;;;;;;;;;;;;;;;;;6143162;23;19916;-72
2022/11/28 01:41:38;;;;;;;;;;;;;;;;;;6140318;23;19966;-73
2022/11/28 01:44:04;;;;;;;;;;;;;;;;;;6141986;23;19924;-72
2022/11/28 01:46:30;;;;;;;;;;;;;;;;;;6142834;23;20023;-73
2022/11/28 01:48:56;;;;;;;;;;;;;;;;;;6141285;23;19916;-73
2022/11/28 01:51:22;;;;;;;;;;;;;;;;;;6141042;23;20328;-72
2022/11/28 01:53:48;;;;;;;;;;;;;;;;;;6141459;23;19917;-73
2022/11/28 01:56:14;;;;;;;;;;;;;;;;;;6140908;23;19916;-73
2022/11/28 01:58:39;;;;;;;;;;;;;;;;;;6140934;23;19971;-72
2022/11/28 02:01:05;;;;;;;;;;;;;;;;;;6140753;23;19927;-72
2022/11/28 02:03:31;;;;;;;;;;;;;;;;;;6142874;23;19916;-72
2022/11/28 02:05:57;;;;;;;;;;;;;;;;;;6140261;23;19952;-72
2022/11/28 02:08:24;;;;;;;;;;;;;;;;;;6139150;23;19916;-72
2022/11/28 02:10:50;;;;;;;;;;;;;;;;;;6141216;23;19916;-72
2022/11/28 02:13:16;;;;;;;;;;;;;;;;;;6141723;23;20003;-72
2022/11/28 02:15:42;;;;;;;;;;;;;;;;;;6140673;23;19917;-72
2022/11/28 02:18:08;;;;;;;;;;;;;;;;;;6092216;23;19917;-72
2022/11/28 02:20:34;;;;;;;;;;;;;;;;;;6141828;23;19920;-72
2022/11/28 02:22:59;;;;;;;;;;;;;;;;;;6141343;23;19916;-72
2022/11/28 02:25:25;;;;;;;;;;;;;;;;;;6141179;23;19928;-72
2022/11/28 02:27:51;;;;;;;;;;;;;;;;;;6140993;23;19987;-72
2022/11/28 02:30:18;;;;;;;;;;;;;;;;;;6140464;23;19920;-72
2022/11/28 02:32:44;;;;;;;;;;;;;;;;;;6140453;23;19940;-72
2022/11/28 02:35:10;;;;;;;;;;;;;;;;;;6139266;23;19983;-72
2022/11/28 02:37:35;;;;;;;;;;;;;;;;;;6142243;23;20252;-72
2022/11/28 02:40:01;;;;;;;;;;;;;;;;;;6139273;23;20272;-72
2022/11/28 02:42:27;;;;;;;;;;;;;;;;;;6135112;23;19931;-72
2022/11/28 02:44:53;;;;;;;;;;;;;;;;;;6135740;23;20407;-71
2022/11/28 02:47:19;;;;;;;;;;;;;;;;;;6135061;23;20289;-72
2022/11/28 02:49:45;;;;;;;;;;;;;;;;;;6135355;23;20239;-72
2022/11/28 02:52:11;;;;;;;;;;;;;;;;;;6135065;23;20367;-72
2022/11/28 02:54:37;;;;;;;;;;;;;;;;;;6135274;23;20625;-71
2022/11/28 02:57:03;;;;;;;;;;;;;;;;;;6111512;23;19916;-72
2022/11/28 02:59:29;;;;;;;;;;;;;;;;;;6134647;23;20185;-72
2022/11/28 03:01:55;;;;;;;;;;;;;;;;;;6134761;23;19943;-72
2022/11/28 03:04:21;;;;;;;;;;;;;;;;;;6135483;23;19979;-72
2022/11/28 03:06:47;;;;;;;;;;;;;;;;;;6133816;23;20306;-72
2022/11/28 03:09:13;;;;;;;;;;;;;;;;;;6135581;23;19917;-72
2022/11/28 03:11:39;;;;;;;;;;;;;;;;;;6112530;23;19983;-72
2022/11/28 03:14:05;;;;;;;;;;;;;;;;;;6135319;23;20011;-71
2022/11/28 03:16:31;;;;;;;;;;;;;;;;;;6135193;23;19921;-73
2022/11/28 03:18:57;;;;;;;;;;;;;;;;;;6111845;23;19928;-72
2022/11/28 03:21:23;;;;;;;;;;;;;;;;;;6111654;23;19921;-73
2022/11/28 03:23:48;;;;;;;;;;;;;;;;;;6135687;23;19923;-72
2022/11/28 03:26:14;;;;;;;;;;;;;;;;;;6135092;23;19940;-71
2022/11/28 03:28:40;;;;;;;;;;;;;;;;;;6112068;23;20132;-73
2022/11/28 03:31:06;;;;;;;;;;;;;;;;;;6135753;23;19952;-72
2022/11/28 03:33:32;;;;;;;;;;;;;;;;;;6134689;23;19917;-73
2022/11/28 03:35:58;;;;;;;;;;;;;;;;;;6135555;23;20409;-73
2022/11/28 03:38:24;;;;;;;;;;;;;;;;;;6135070;23;19946;-73
2022/11/28 03:40:50;;;;;;;;;;;;;;;;;;6135756;23;19927;-72
2022/11/28 03:43:16;;;;;;;;;;;;;;;;;;6134800;23;20024;-72
2022/11/28 03:45:42;;;;;;;;;;;;;;;;;;6135626;23;19916;-72
2022/11/28 03:48:08;;;;;;;;;;;;;;;;;;6111265;23;19917;-72
2022/11/28 03:50:34;;;;;;;;;;;;;;;;;;6135316;23;19948;-73
2022/11/28 03:53:00;;;;;;;;;;;;;;;;;;6111758;23;19917;-73
2022/11/28 03:55:25;;;;;;;;;;;;;;;;;;6134890;23;19916;-72
2022/11/28 03:57:51;;;;;;;;;;;;;;;;;;6110515;23;19975;-73
2022/11/28 04:00:17;;;;;;;;;;;;;;;;;;6135641;23;20023;-72
2022/11/28 04:02:43;;;;;;;;;;;;;;;;;;6134721;23;19917;-72
2022/11/28 04:05:09;;;;;;;;;;;;;;;;;;6135162;23;19987;-72
2022/11/28 04:07:35;;;;;;;;;;;;;;;;;;6111666;23;19947;-72
2022/11/28 04:10:01;;;;;;;;;;;;;;;;;;6135408;23;20352;-72
2022/11/28 04:12:27;;;;;;;;;;;;;;;;;;6134853;23;19916;-72
2022/11/28 04:14:53;;;;;;;;;;;;;;;;;;6135377;23;19923;-72
2022/11/28 04:17:19;;;;;;;;;;;;;;;;;;6133324;23;19917;-72
2022/11/28 04:19:45;;;;;;;;;;;;;;;;;;6134970;23;19927;-72
2022/11/28 04:22:11;;;;;;;;;;;;;;;;;;6110673;23;20299;-72
2022/11/28 04:24:37;;;;;;;;;;;;;;;;;;6134867;23;19916;-72
2022/11/28 04:27:03;;;;;;;;;;;;;;;;;;6134689;23;19947;-72
2022/11/28 04:29:29;;;;;;;;;;;;;;;;;;6110850;23;19916;-73
2022/11/28 04:31:55;;;;;;;;;;;;;;;;;;6134549;23;20556;-72
2022/11/28 04:34:21;;;;;;;;;;;;;;;;;;6112034;23;20249;-71
2022/11/28 04:36:47;;;;;;;;;;;;;;;;;;6135041;23;20411;-72
2022/11/28 04:39:13;;;;;;;;;;;;;;;;;;6132756;23;19921;-72
2022/11/28 04:41:38;;;;;;;;;;;;;;;;;;6135839;23;19988;-72
2022/11/28 04:44:04;;;;;;;;;;;;;;;;;;6139302;23;19928;-72
2022/11/28 04:46:30;;;;;;;;;;;;;;;;;;6139843;23;20120;-72
2022/11/28 04:48:56;;;;;;;;;;;;;;;;;;6140205;23;19923;-72
2022/11/28 04:51:22;;;;;;;;;;;;;;;;;;6141693;23;19923;-73
2022/11/28 04:53:48;;;;;;;;;;;;;;;;;;6089437;23;20154;-72
2022/11/28 04:56:14;;;;;;;;;;;;;;;;;;6140555;23;19920;-72
2022/11/28 04:58:40;;;;;;;;;;;;;;;;;;6138435;23;19983;-72
2022/11/28 05:01:06;;;;;;;;;;;;;;;;;;6139523;23;19952;-72
2022/11/28 05:03:32;;;;;;;;;;;;;;;;;;6139406;23;19976;-73
2022/11/28 05:05:58;;;;;;;;;;;;;;;;;;6139093;23;19916;-72
2022/11/28 05:08:24;;;;;;;;;;;;;;;;;;6139270;23;19917;-72
2022/11/28 05:10:50;;;;;;;;;;;;;;;;;;6138125;23;19916;-71
2022/11/28 05:13:16;;;;;;;;;;;;;;;;;;6138747;23;19921;-72
2022/11/28 05:15:42;;;;;;;;;;;;;;;;;;6139306;23;19916;-72
2022/11/28 05:18:08;;;;;;;;;;;;;;;;;;6138901;23;19987;-72
2022/11/28 05:20:34;;;;;;;;;;;;;;;;;;6138181;23;19938;-73
2022/11/28 05:23:00;;;;;;;;;;;;;;;;;;6138032;23;20458;-72
2022/11/28 05:25:26;;;;;;;;;;;;;;;;;;6138505;23;19912;-72
2022/11/28 05:27:51;;;;;;;;;;;;;;;;;;6139276;23;19927;-72
2022/11/28 05:30:17;;;;;;;;;;;;;;;;;;6139763;23;20229;-72
2022/11/28 05:32:43;;;;;;;;;;;;;;;;;;6139402;23;19923;-72
2022/11/28 05:35:09;;;;;;;;;;;;;;;;;;6138803;23;19951;-73
2022/11/28 05:37:35;;;;;;;;;;;;;;;;;;6139109;23;19916;-72
2022/11/28 05:40:01;;;;;;;;;;;;;;;;;;6138406;23;19921;-72
2022/11/28 05:42:29;;;;;;;;;;;;;;;;;;6138590;23;19920;-72
2022/11/28 05:44:55;;;;;;;;;;;;;;;;;;6139369;23;19916;-72
2022/11/28 05:47:22;;;;;;;;;;;;;;;;;;6139148;23;19927;-72
2022/11/28 05:49:48;;;;;;;;;;;;;;;;;;6137520;23;19916;-72
2022/11/28 05:52:14;;;;;;;;;;;;;;;;;;6139103;23;20384;-72
2022/11/28 05:54:40;;;;;;;;;;;;;;;;;;6138188;23;19916;-72
2022/11/28 05:57:06;;;;;;;;;;;;;;;;;;6137983;23;19987;-72
2022/11/28 05:59:32;;;;;;;;;;;;;;;;;;6138110;23;20005;-73
2022/11/28 06:01:58;;;;;;;;;;;;;;;;;;6140830;23;19920;-73
2022/11/28 06:04:24;;;;;;;;;;;;;;;;;;6139401;23;19920;-72
2022/11/28 06:06:50;;;;;;;;;;;;;;;;;;6137641;23;19917;-72
2022/11/28 06:09:16;;;;;;;;;;;;;;;;;;6137858;23;19987;-72
2022/11/28 06:11:42;;;;;;;;;;;;;;;;;;6138296;23;20387;-72
2022/11/28 06:14:08;;;;;;;;;;;;;;;;;;6138662;23;19921;-72
2022/11/28 06:16:34;;;;;;;;;;;;;;;;;;6137157;23;20390;-74
2022/11/28 06:18:59;;;;;;;;;;;;;;;;;;6140908;23;19955;-74
2022/11/28 06:21:25;;;;;;;;;;;;;;;;;;6140495;23;19920;-73
2022/11/28 06:23:51;;;;;;;;;;;;;;;;;;6141071;23;19943;-73
2022/11/28 06:26:17;;;;;;;;;;;;;;;;;;6140566;23;19923;-73
2022/11/28 06:28:43;;;;;;;;;;;;;;;;;;6139845;23;19923;-73
2022/11/28 06:31:09;;;;;;;;;;;;;;;;;;6140881;23;20648;-73
2022/11/28 06:33:35;;;;;;;;;;;;;;;;;;6141097;23;19948;-73
2022/11/28 06:36:01;;;;;;;;;;;;;;;;;;6141002;23;19920;-74
2022/11/28 06:38:27;;;;;;;;;;;;;;;;;;6140036;23;19917;-73
2022/11/28 06:40:53;;;;;;;;;;;;;;;;;;6140959;23;20158;-74
2022/11/28 06:43:19;;;;;;;;;;;;;;;;;;6140237;23;19976;-73
2022/11/28 06:45:45;;;;;;;;;;;;;;;;;;6141979;23;19975;-73
2022/11/28 06:48:11;;;;;;;;;;;;;;;;;;6140534;23;20363;-73
2022/11/28 06:50:37;;;;;;;;;;;;;;;;;;6140268;23;19955;-72
2022/11/28 06:53:02;;;;;;;;;;;;;;;;;;6140918;23;19912;-73
2022/11/28 06:55:28;;;;;;;;;;;;;;;;;;6139402;23;19923;-73
2022/11/28 06:57:54;;;;;;;;;;;;;;;;;;6141919;23;20548;-73
2022/11/28 07:00:20;;;;;;;;;;;;;;;;;;6141326;23;19988;-73
2022/11/28 07:02:46;;;;;;;;;;;;;;;;;;6139173;23;20327;-73
2022/11/28 07:05:15;;;;;;;;;;;;;;;;;;6140301;23;19916;-73
2022/11/28 07:07:41;;;;;;;;;;;;;;;;;;6140812;23;19925;-72
2022/11/28 07:10:07;;;;;;;;;;;;;;;;;;6139506;23;19923;-76
2022/11/28 07:12:33;;;;;;;;;;;;;;;;;;6140732;23;19986;-72
2022/11/28 07:14:59;;;;;;;;;;;;;;;;;;6141214;23;20712;-73
2022/11/28 07:17:24;;;;;;;;;;;;;;;;;;6141758;23;19916;-72
2022/11/28 07:19:50;;;;;;;;;;;;;;;;;;6141231;23;20022;-73
2022/11/28 07:22:16;;;;;;;;;;;;;;;;;;6141875;23;20004;-71
2022/11/28 07:24:42;;;;;;;;;;;;;;;;;;6140614;23;19916;-72
2022/11/28 07:27:08;;;;;;;;;;;;;;;;;;6140987;23;19955;-71
2022/11/28 07:29:35;;;;;;;;;;;;;;;;;;6139827;23;20296;-72
2022/11/28 07:32:01;;;;;;;;;;;;;;;;;;6138722;23;19921;-72
2022/11/28 07:34:27;;;;;;;;;;;;;;;;;;6141286;23;20031;-73
2022/11/28 07:36:53;;;;;;;;;;;;;;;;;;6139236;23;19917;-72
2022/11/28 07:39:19;;;;;;;;;;;;;;;;;;6136419;23;20321;-71
2022/11/28 07:41:45;;;;;;;;;;;;;;;;;;6140699;23;19920;-78
2022/11/28 07:44:11;;;;;;;;;;;;;;;;;;6140078;23;19955;-75
2022/11/28 07:46:37;;;;;;;;;;;;;;;;;;6139965;23;19952;-73
2022/11/28 07:49:03;;;;;;;;;;;;;;;;;;6141687;23;19954;-74
2022/11/28 07:51:29;;;;;;;;;;;;;;;;;;6139108;23;19927;-75
2022/11/28 07:53:55;;;;;;;;;;;;;;;;;;6138798;23;19916;-75
2022/11/28 07:56:21;;;;;;;;;;;;;;;;;;6139399;23;19995;-72
2022/11/28 07:58:47;;;;;;;;;;;;;;;;;;6137676;23;20311;-76
2022/11/28 08:01:13;;;;;;;;;;;;;;;;;;6138425;23;19931;-74
2022/11/28 08:03:39;;;;;;;;;;;;;;;;;;6088117;23;19923;-74
2022/11/28 08:06:05;;;;;;;;;;;;;;;;;;6138256;23;19916;-74
2022/11/28 08:08:31;;;;;;;;;;;;;;;;;;6138960;23;19925;-76
2022/11/28 08:10:57;;;;;;;;;;;;;;;;;;6138157;23;19916;-75
2022/11/28 08:13:23;;;;;;;;;;;;;;;;;;6140381;23;20690;-76
2022/11/28 08:15:49;;;;;;;;;;;;;;;;;;6140334;23;19916;-76
2022/11/28 08:18:15;;;;;;;;;;;;;;;;;;6139161;23;19923;-76
2022/11/28 08:20:40;;;;;;;;;;;;;;;;;;6137990;23;19921;-77
2022/11/28 08:23:06;;;;;;;;;;;;;;;;;;6137944;23;20364;-75
2022/11/28 08:25:32;;;;;;;;;;;;;;;;;;6139118;23;19921;-76
2022/11/28 08:27:58;;;;;;;;;;;;;;;;;;6140218;23;19917;-75
2022/11/28 08:30:24;;;;;;;;;;;;;;;;;;6139201;23;20303;-76
2022/11/28 08:32:50;;;;;;;;;;;;;;;;;;6138963;23;19917;-75
2022/11/28 08:35:16;;;;;;;;;;;;;;;;;;6140419;23;20370;-76
2022/11/28 08:37:42;;;;;;;;;;;;;;;;;;6138404;23;20320;-80
2022/11/28 08:40:08;;;;;;;;;;;;;;;;;;6140216;23;20007;-76
2022/11/28 08:42:34;;;;;;;;;;;;;;;;;;6140013;23;19928;-75
2022/11/28 08:45:00;;;;;;;;;;;;;;;;;;6142199;23;20337;-74
2022/11/28 08:47:26;;;;;;;;;;;;;;;;;;6138972;23;19916;-73
2022/11/28 08:49:52;;;;;;;;;;;;;;;;;;6141454;23;19951;-74
2022/11/28 08:52:18;;;;;;;;;;;;;;;;;;6137340;23;19916;-75
2022/11/28 08:54:44;;;;;;;;;;;;;;;;;;6140310;23;20580;-75
2022/11/28 08:57:10;;;;;;;;;;;;;;;;;;6140236;23;19940;-73
2022/11/28 08:59:36;;;;;;;;;;;;;;;;;;6139294;23;19916;-73
2022/11/28 09:02:01;;;;;;;;;;;;;;;;;;6140527;23;19925;-74
2022/11/28 09:04:27;;;;;;;;;;;;;;;;;;6138927;23;19986;-76
2022/11/28 09:06:53;;;;;;;;;;;;;;;;;;6139465;23;20007;-73
2022/11/28 09:09:19;;;;;;;;;;;;;;;;;;6137199;23;19924;-73
2022/11/28 09:11:46;;;;;;;;;;;;;;;;;;6136976;23;19920;-75
2022/11/28 09:14:11;;;;;;;;;;;;;;;;;;6139332;23;19952;-74
2022/11/28 09:16:38;;;;;;;;;;;;;;;;;;6139741;23;20659;-75
2022/11/28 09:19:05;;;;;;;;;;;;;;;;;;6139039;23;19968;-75
2022/11/28 09:21:31;;;;;;;;;;;;;;;;;;6138253;23;19928;-74
2022/11/28 09:23:57;;;;;;;;;;;;;;;;;;6138774;23;19916;-77
2022/11/28 09:26:24;;;;;;;;;;;;;;;;;;6140246;23;19928;-73
2022/11/28 09:28:50;;;;;;;;;;;;;;;;;;6139239;23;19927;-73
2022/11/28 09:31:15;;;;;;;;;;;;;;;;;;6138936;23;20336;-74
2022/11/28 09:33:42;;;;;;;;;;;;;;;;;;6088593;23;20026;-73
2022/11/28 09:36:08;;;;;;;;;;;;;;;;;;6135423;23;20592;-72
2022/11/28 09:38:34;;;;;;;;;;;;;;;;;;6140347;23;19932;-73
2022/11/28 09:41:00;;;;;;;;;;;;;;;;;;6139876;23;19920;-72
2022/11/28 09:43:26;;;;;;;;;;;;;;;;;;6139679;23;20002;-72
2022/11/28 09:45:52;;;;;;;;;;;;;;;;;;6138913;23;20376;-72
2022/11/28 09:48:18;;;;;;;;;;;;;;;;;;6139997;23;19924;-75
2022/11/28 09:50:44;;;;;;;;;;;;;;;;;;6138671;23;19920;-75
2022/11/28 09:53:10;;;;;;;;;;;;;;;;;;6139903;23;19924;-76
2022/11/28 09:55:35;;;;;;;;;;;;;;;;;;6141107;23;19951;-74
2022/11/28 09:58:01;;;;;;;;;;;;;;;;;;6139943;23;19924;-74
2022/11/28 10:00:27;;;;;;;;;;;;;;;;;;6142277;23;19916;-74
2022/11/28 10:02:54;;;;;;;;;;;;;;;;;;6139352;23;19916;-76
2022/11/28 10:05:22;;;;;;;;;;;;;;;;;;6140272;23;19916;-72
2022/11/28 10:07:48;;;;;;;;;;;;;;;;;;6139318;23;19917;-74
2022/11/28 10:10:14;;;;;;;;;;;;;;;;;;6139171;23;20324;-76
2022/11/28 10:12:40;;;;;;;;;;;;;;;;;;6142124;23;19932;-77
2022/11/28 10:15:05;;;;;;;;;;;;;;;;;;6139297;23;20363;-76
2022/11/28 10:17:31;;;;;;;;;;;;;;;;;;6138833;23;20251;-76
2022/11/28 10:19:57;;;;;;;;;;;;;;;;;;6139572;23;19955;-75
2022/11/28 10:22:23;;;;;;;;;;;;;;;;;;6142682;23;20240;-75
2022/11/28 10:24:49;;;;;;;;;;;;;;;;;;6140442;23;19916;-75
2022/11/28 10:27:15;;;;;;;;;;;;;;;;;;6142818;23;20217;-74
2022/11/28 10:29:41;;;;;;;;;;;;;;;;;;6141207;23;19952;-75
2022/11/28 10:32:07;;;;;;;;;;;;;;;;;;6141129;23;20226;-76
2022/11/28 10:34:33;;;;;;;;;;;;;;;;;;6140787;23;19921;-75
2022/11/28 10:36:59;;;;;;;;;;;;;;;;;;6139555;23;20302;-76
2022/11/28 10:39:25;;;;;;;;;;;;;;;;;;6141404;23;19916;-75
2022/11/28 10:42:10;;;;;;;;;;;;;;;;;;6137836;23;19924;-75
2022/11/28 10:44:36;;;;;;;;;;;;;;;;;;6141584;23;20344;-75
2022/11/28 10:47:03;;;;;;;;;;;;;;;;;;6136014;23;19920;-75
2022/11/28 10:49:29;;;;;;;;;;;;;;;;;;6137643;23;20366;-75
2022/11/28 10:51:55;;;;;;;;;;;;;;;;;;6138207;23;19991;-74
2022/11/28 10:54:21;;;;;;;;;;;;;;;;;;6140025;23;19931;-73
2022/11/28 10:56:46;;;;;;;;;;;;;;;;;;6142569;23;20347;-75
2022/11/28 10:59:12;;;;;;;;;;;;;;;;;;6142203;23;19917;-74
2022/11/28 11:01:38;;;;;;;;;;;;;;;;;;6140458;23;19935;-74
2022/11/28 11:04:04;;;;;;;;;;;;;;;;;;6142079;23;20312;-77
2022/11/28 11:06:30;;;;;;;;;;;;;;;;;;6139081;23;20003;-74
2022/11/28 11:08:56;;;;;;;;;;;;;;;;;;6140164;23;19920;-74
2022/11/28 11:11:22;;;;;;;;;;;;;;;;;;6140233;23;19916;-73
2022/11/28 11:13:48;;;;;;;;;;;;;;;;;;6141117;23;19917;-76
2022/11/28 11:16:14;;;;;;;;;;;;;;;;;;6141287;23;19939;-75
2022/11/28 11:18:40;;;;;;;;;;;;;;;;;;6141096;23;19943;-76
2022/11/28 11:21:06;;;;;;;;;;;;;;;;;;6142795;23;19921;-74
2022/11/28 11:23:32;;;;;;;;;;;;;;;;;;6140646;23;19920;-76
2022/11/28 11:25:58;;;;;;;;;;;;;;;;;;6140766;23;19963;-75
2022/11/28 11:28:24;;;;;;;;;;;;;;;;;;6141263;23;19916;-73
2022/11/28 17:20:30;;;;;;;;;;;;;;;;;;6140719;23;19929;-74
2022/11/28 17:22:57;;;;;;;;;;;;;;;;;;6136173;23;20255;-73
2022/11/28 17:25:23;;;;;;;;;;;;;;;;;;6137285;23;20366;-74
2022/11/28 17:27:51;;;;;;;;;;;;;;;;;;6137994;23;20003;-72
2022/11/28 17:30:17;;;;;;;;;;;;;;;;;;6136688;23;19947;-76
2022/11/28 17:32:43;;;;;;;;;;;;;;;;;;6139232;23;19917;-75
2022/11/28 17:35:09;;;;;;;;;;;;;;;;;;6137258;23;20408;-79
2022/11/28 17:37:35;;;;;;;;;;;;;;;;;;6137408;23;19943;-75
2022/11/28 17:42:45;;;;;;;;;;;;;;;;;;6140287;23;19923;-75
2022/11/28 17:45:13;;;;;;;;;;;;;;;;;;6136542;23;19972;-76
2022/11/28 17:47:39;;;;;;;;;;;;;;;;;;6138135;23;19924;-76
2022/11/28 17:50:04;;;;;;;;;;;;;;;;;;6139168;23;20411;-76
2022/11/28 17:52:31;;;;;;;;;;;;;;;;;;6138323;23;19916;-77
2022/11/28 17:55:02;;;;;;;;;;;;;;;;;;6136227;23;19931;-76
2022/11/28 17:57:28;;;;;;;;;;;;;;;;;;6140226;23;19916;-76
2022/11/28 17:59:54;;;;;;;;;;;;;;;;;;6139308;23;19987;-76
2022/11/28 18:02:20;;;;;;;;;;;;;;;;;;6139415;23;19927;-77
2022/11/28 18:04:46;;;;;;;;;;;;;;;;;;6139302;23;19959;-75
2022/11/28 18:07:12;;;;;;;;;;;;;;;;;;6140185;23;19925;-75
2022/11/28 18:09:38;;;;;;;;;;;;;;;;;;6138861;23;19916;-75
2022/11/28 18:12:04;;;;;;;;;;;;;;;;;;6136461;23;20323;-75
2022/11/28 18:14:30;;;;;;;;;;;;;;;;;;6090759;23;19924;-75
2022/11/28 18:16:56;;;;;;;;;;;;;;;;;;6138891;23;19923;-75
2022/11/28 18:19:22;;;;;;;;;;;;;;;;;;6141087;23;20015;-75
2022/11/28 18:21:47;;;;;;;;;;;;;;;;;;6164175;23;19921;-75
2022/11/28 18:24:13;;;;;;;;;;;;;;;;;;6160025;23;19923;-73
2022/11/28 18:26:39;;;;;;;;;;;;;;;;;;6137191;23;19917;-73
2022/11/28 18:29:06;;;;;;;;;;;;;;;;;;6141431;23;19987;-77
2022/11/28 18:31:32;;;;;;;;;;;;;;;;;;6165228;23;20015;-75
2022/11/28 18:33:58;;;;;;;;;;;;;;;;;;6165836;23;20003;-74
2022/11/28 18:36:23;;;;;;;;;;;;;;;;;;6165752;23;20431;-78
2022/11/28 18:38:49;;;;;;;;;;;;;;;;;;6163923;23;19967;-75
2022/11/28 18:41:15;;;;;;;;;;;;;;;;;;6165670;23;20377;-79
2022/11/28 18:43:41;;;;;;;;;;;;;;;;;;6117036;23;19921;-80
2022/11/28 18:46:07;;;;;;;;;;;;;;;;;;6163370;23;19924;-73
2022/11/28 18:48:33;;;;;;;;;;;;;;;;;;6160911;23;20028;-75
2022/11/28 18:50:59;;;;;;;;;;;;;;;;;;6161516;23;20337;-83
2022/11/28 18:53:25;;;;;;;;;;;;;;;;;;6161876;23;19920;-80
2022/11/28 18:55:51;;;;;;;;;;;;;;;;;;6163306;23;19924;-79
2022/11/28 18:58:17;;;;;;;;;;;;;;;;;;6113442;23;19916;-80
2022/11/28 19:00:43;;;;;;;;;;;;;;;;;;6163031;23;19917;-81
2022/11/28 19:03:09;;;;;;;;;;;;;;;;;;6163037;23;19987;-80
2022/11/28 19:05:35;;;;;;;;;;;;;;;;;;6163228;23;20662;-79
2022/11/28 19:08:01;;;;;;;;;;;;;;;;;;6162100;23;19913;-77
2022/11/28 19:10:27;;;;;;;;;;;;;;;;;;6162302;23;20272;-77
2022/11/28 19:12:52;;;;;;;;;;;;;;;;;;6114065;23;19967;-75
2022/11/28 19:15:18;;;;;;;;;;;;;;;;;;6164062;23;19920;-77
2022/11/28 19:17:44;;;;;;;;;;;;;;;;;;6161900;23;20254;-77
2022/11/28 19:20:10;;;;;;;;;;;;;;;;;;6113981;23;19980;-77
2022/11/28 19:22:36;;;;;;;;;;;;;;;;;;6163161;23;20319;-76
2022/11/28 19:25:02;;;;;;;;;;;;;;;;;;6160572;23;19996;-77
2022/11/28 19:27:28;;;;;;;;;;;;;;;;;;6114156;23;19924;-79
2022/11/28 19:29:54;;;;;;;;;;;;;;;;;;6163563;23;19971;-77
2022/11/28 19:32:20;;;;;;;;;;;;;;;;;;6161890;23;19916;-77
2022/11/28 19:34:51;;;;;;;;;;;;;;;;;;6113061;23;19916;-77
2022/11/28 19:37:16;;;;;;;;;;;;;;;;;;6162503;23;19923;-76
2022/11/28 19:39:42;;;;;;;;;;;;;;;;;;6164038;23;19920;-77
2022/11/28 19:42:08;;;;;;;;;;;;;;;;;;6163106;23;20438;-76
2022/11/28 19:44:34;;;;;;;;;;;;;;;;;;6112245;23;19924;-76
2022/11/28 19:47:00;;;;;;;;;;;;;;;;;;6114627;23;20557;-76
2022/11/28 19:49:26;;;;;;;;;;;;;;;;;;6113759;23;19940;-77
2022/11/28 19:51:53;;;;;;;;;;;;;;;;;;6168487;23;20439;-77
2022/11/28 19:54:19;;;;;;;;;;;;;;;;;;6116616;23;19923;-77
2022/11/28 19:56:45;;;;;;;;;;;;;;;;;;6143393;23;19920;-77
2022/11/28 19:59:11;;;;;;;;;;;;;;;;;;6143948;23;19916;-76
2022/11/28 20:01:37;;;;;;;;;;;;;;;;;;6139941;23;19970;-76
2022/11/28 20:04:03;;;;;;;;;;;;;;;;;;6142371;23;19944;-76
2022/11/28 20:06:29;;;;;;;;;;;;;;;;;;6142839;23;20748;-76
2022/11/28 20:08:55;;;;;;;;;;;;;;;;;;6118796;23;19944;-78
2022/11/28 20:11:21;;;;;;;;;;;;;;;;;;6119505;23;19920;-79
2022/11/28 20:13:47;;;;;;;;;;;;;;;;;;6117874;23;19963;-78
2022/11/28 20:16:13;;;;;;;;;;;;;;;;;;6143287;23;19916;-77
2022/11/28 20:18:39;;;;;;;;;;;;;;;;;;6143644;23;19916;-77
2022/11/28 20:21:05;;;;;;;;;;;;;;;;;;6143867;23;19920;-78
2022/11/28 20:23:31;;;;;;;;;;;;;;;;;;6142684;23;19951;-78
2022/11/28 20:25:57;;;;;;;;;;;;;;;;;;6142060;23;19987;-77
2022/11/28 20:28:23;;;;;;;;;;;;;;;;;;6141778;23;19920;-77
2022/11/28 20:30:49;;;;;;;;;;;;;;;;;;6144140;23;20427;-80
2022/11/28 20:33:15;;;;;;;;;;;;;;;;;;6143124;23;19979;-78
2022/11/28 20:35:41;;;;;;;;;;;;;;;;;;6142804;23;19916;-78
2022/11/28 20:38:07;;;;;;;;;;;;;;;;;;6144073;23;19923;-80
2022/11/28 20:40:32;;;;;;;;;;;;;;;;;;6142159;23;19916;-79
2022/11/28 20:42:58;;;;;;;;;;;;;;;;;;6141757;23;19927;-79
2022/11/28 20:45:24;;;;;;;;;;;;;;;;;;6143418;23;19916;-77
2022/11/28 20:47:50;;;;;;;;;;;;;;;;;;6117744;23;19916;-80
2022/11/28 20:50:16;;;;;;;;;;;;;;;;;;6141612;23;19923;-79
2022/11/28 20:52:42;;;;;;;;;;;;;;;;;;6169785;23;20716;-79
2022/11/28 20:55:08;;;;;;;;;;;;;;;;;;6119031;23;19916;-82
2022/11/28 20:57:34;;;;;;;;;;;;;;;;;;6118844;23;19948;-81
2022/11/28 21:00:00;;;;;;;;;;;;;;;;;;6142281;23;19928;-80
2022/11/28 21:02:26;;;;;;;;;;;;;;;;;;6143214;23;19920;-80
2022/11/28 21:04:52;;;;;;;;;;;;;;;;;;6119094;23;19916;-81
2022/11/28 21:07:18;;;;;;;;;;;;;;;;;;6144075;23;19912;-81
2022/11/28 21:09:44;;;;;;;;;;;;;;;;;;6142658;23;19923;-80
2022/11/28 21:12:10;;;;;;;;;;;;;;;;;;6141565;23;19932;-77
2022/11/28 21:14:36;;;;;;;;;;;;;;;;;;6142475;23;19963;-76
2022/11/28 21:17:02;;;;;;;;;;;;;;;;;;6142391;23;19990;-75
2022/11/28 21:19:28;;;;;;;;;;;;;;;;;;6141239;23;19923;-76
2022/11/28 21:21:54;;;;;;;;;;;;;;;;;;6118581;23;20084;-77
2022/11/28 21:24:20;;;;;;;;;;;;;;;;;;6142828;23;19955;-76
2022/11/28 21:26:46;;;;;;;;;;;;;;;;;;6141395;23;20145;-75
2022/11/28 21:29:12;;;;;;;;;;;;;;;;;;6141212;23;19951;-75
2022/11/28 21:31:38;;;;;;;;;;;;;;;;;;6169309;23;20661;-74
2022/11/28 21:34:04;;;;;;;;;;;;;;;;;;6144044;23;19920;-75
2022/11/28 21:36:30;;;;;;;;;;;;;;;;;;6142653;23;19916;-76
2022/11/28 21:38:56;;;;;;;;;;;;;;;;;;6143148;23;19987;-74
2022/11/28 21:41:22;;;;;;;;;;;;;;;;;;6142634;23;20335;-74
2022/11/28 21:43:48;;;;;;;;;;;;;;;;;;6143221;23;19922;-75
2022/11/28 21:46:14;;;;;;;;;;;;;;;;;;6141410;23;19972;-75
2022/11/28 21:48:40;;;;;;;;;;;;;;;;;;6141315;23;19916;-75
2022/11/28 21:51:06;;;;;;;;;;;;;;;;;;6145406;23;19916;-76
2022/11/28 21:53:32;;;;;;;;;;;;;;;;;;6143736;23;19923;-75
2022/11/28 21:55:58;;;;;;;;;;;;;;;;;;6145425;23;19927;-74
2022/11/28 21:58:26;;;;;;;;;;;;;;;;;;6143464;23;19994;-74
2022/11/28 22:00:52;;;;;;;;;;;;;;;;;;6143914;23;19916;-74
2022/11/28 22:03:19;;;;;;;;;;;;;;;;;;6144662;23;19920;-75
2022/11/28 22:05:45;;;;;;;;;;;;;;;;;;6144499;23;19920;-76
2022/11/28 22:08:11;;;;;;;;;;;;;;;;;;6144637;23;19920;-76
2022/11/28 22:10:37;;;;;;;;;;;;;;;;;;6143943;23;20342;-77
2022/11/28 22:13:03;;;;;;;;;;;;;;;;;;6144530;23;19924;-79
2022/11/28 22:15:29;;;;;;;;;;;;;;;;;;6144078;23;19919;-80
2022/11/28 22:17:55;;;;;;;;;;;;;;;;;;6143778;23;19990;-76
2022/11/28 22:20:21;;;;;;;;;;;;;;;;;;6144904;23;19920;-77
2022/11/28 22:22:48;;;;;;;;;;;;;;;;;;6143056;23;19920;-78
2022/11/28 22:25:13;;;;;;;;;;;;;;;;;;6145063;23;19916;-76
2022/11/28 22:27:39;;;;;;;;;;;;;;;;;;6143119;23;19916;-76
2022/11/28 22:30:05;;;;;;;;;;;;;;;;;;6144057;23;19923;-79